Time;durP1;ratioP1;P1;durP2;ratioP2;P2;SDS_P1;SDS_P2;PMS_P1;PMS_P2;Temp;Humidity;BMP_temperature;BMP_pressure;BME280_temperature;BME280_humidity;BME280_pressure;Samples;Min_cycle;Max_cycle;Signal;HPM_P1;HPM_P2
2022/02/10 00:19:47;;;;;;;5.70;4.67;;;6.60;99.90;;;;;;5035570;28;20819;-74
2022/02/10 00:35:47;;;;;;;5.33;4.17;;;6.40;99.90;;;;;;5044776;28;20927;-75
2022/02/10 00:38:13;;;;;;;6.27;3.87;;;6.50;99.90;;;;;;5044652;28;20945;-75
2022/02/10 00:40:39;;;;;;;5.50;4.40;;;6.50;99.90;;;;;;5044403;28;20436;-72
2022/02/10 00:43:05;;;;;;;4.77;3.77;;;6.40;99.90;;;;;;5034203;28;20421;-74
2022/02/10 00:45:33;;;;;;;4.20;3.80;;;6.40;99.90;;;;;;5044245;28;20176;-73
2022/02/10 00:48:03;;;;;;;7.50;4.60;;;6.40;99.90;;;;;;5043963;28;20558;-74
2022/02/10 00:50:30;;;;;;;6.50;4.10;;;6.50;99.90;;;;;;5044520;28;20429;-74
2022/02/10 00:53:05;;;;;;;5.73;4.30;;;6.50;99.90;;;;;;5035204;28;20654;-74
2022/02/10 00:55:33;;;;;;;4.73;4.33;;;6.50;99.90;;;;;;5034732;28;20428;-73
2022/02/10 00:58:00;;;;;;;4.97;4.53;;;6.50;99.90;;;;;;5044239;28;20958;-75
2022/02/10 01:24:31;;;;;;;5.77;4.40;;;6.40;99.90;;;;;;5045263;28;20440;-74
2022/02/10 01:29:44;;;;;;;6.10;4.40;;;6.40;99.90;;;;;;5045217;28;20400;-75
2022/02/10 01:32:10;;;;;;;5.10;4.60;;;6.40;99.90;;;;;;5044035;28;20447;-74
2022/02/10 01:34:55;;;;;;;5.83;4.00;;;6.30;99.90;;;;;;5051601;28;20875;-75
2022/02/10 01:37:20;;;;;;;4.47;3.50;;;6.30;99.90;;;;;;5044170;28;20792;-74
2022/02/10 01:39:54;;;;;;;4.77;4.27;;;6.20;99.90;;;;;;5043665;28;20464;-73
2022/02/10 02:03:16;;;;;;;5.37;3.70;;;5.90;99.90;;;;;;5043429;28;20444;-73
2022/02/10 02:04:06;;;;;;;3.73;3.43;;;5.90;99.90;;;;;;5043105;28;20451;-75
2022/02/10 02:06:41;;;;;;;5.43;3.20;;;5.90;99.90;;;;;;5038569;28;20429;-74
2022/02/10 02:09:11;;;;;;;4.50;3.60;;;5.80;99.90;;;;;;5043104;28;20166;-71
2022/02/10 02:11:39;;;;;;;4.23;3.53;;;5.90;99.90;;;;;;5042568;28;21076;-73
2022/02/10 02:14:07;;;;;;;4.13;3.50;;;5.90;99.90;;;;;;5042926;28;20428;-75
2022/02/10 02:16:33;;;;;;;3.67;3.30;;;6.00;99.90;;;;;;5043205;28;20413;-74
2022/02/10 02:18:58;;;;;;;3.73;3.37;;;6.00;99.90;;;;;;5042928;28;20457;-73
2022/02/10 02:21:24;;;;;;;3.00;2.70;;;5.90;99.90;;;;;;5031862;28;20489;-74
2022/02/10 02:23:50;;;;;;;3.57;3.27;;;5.90;99.90;;;;;;5043070;28;20175;-74
2022/02/10 02:26:23;;;;;;;3.77;3.27;;;5.80;99.90;;;;;;5042998;28;20226;-73
2022/02/10 02:28:53;;;;;;;4.50;3.80;;;5.80;99.90;;;;;;5042921;28;20420;-72
2022/02/10 02:31:25;;;;;;;3.83;3.43;;;5.90;99.90;;;;;;5042723;28;20837;-72
2022/02/10 02:37:03;;;;;;;4.53;3.53;;;6.10;99.90;;;;;;5043273;28;20673;-73
2022/02/10 02:39:46;;;;;;;5.30;3.23;;;6.10;99.90;;;;;;5041760;28;20472;-74
2022/02/10 03:06:35;;;;;;;3.23;2.93;;;6.00;99.90;;;;;;5046382;28;20405;-75
2022/02/10 03:09:19;;;;;;;4.07;3.60;;;6.00;99.90;;;;;;5046232;28;20779;-73
2022/02/10 03:11:45;;;;;;;3.60;3.10;;;6.00;99.90;;;;;;5045952;28;20503;-72
2022/02/10 03:14:16;;;;;;;3.57;3.00;;;6.10;99.90;;;;;;5047228;28;20454;-74
2022/02/10 03:19:56;;;;;;;4.10;3.53;;;6.20;99.90;;;;;;5046533;28;20784;-73
2022/02/10 04:13:59;;;;;;;4.00;3.00;;;6.50;99.90;;;;;;5046029;28;20198;-74
2022/02/10 04:16:30;;;;;;;5.83;2.90;;;6.50;99.90;;;;;;5030739;28;20436;-74
2022/02/10 04:26:52;;;;;;;3.40;2.93;;;6.50;99.90;;;;;;5045266;28;20485;-72
2022/02/10 04:29:44;;;;;;;4.87;3.30;;;6.50;99.90;;;;;;5044884;28;20401;-71
2022/02/10 05:08:16;;;;;;;3.17;2.70;;;6.90;99.90;;;;;;5032706;28;20449;-72
2022/02/10 05:18:52;;;;;;;5.03;2.93;;;7.10;99.90;;;;;;5015007;28;20521;-72
2022/02/10 05:24:39;;;;;;;5.47;3.07;;;6.90;99.90;;;;;;5006262;28;20417;-72
2022/02/10 05:35:44;;;;;;;4.20;3.10;;;6.40;99.90;;;;;;5044989;28;20980;-74
2022/02/10 05:37:53;;;;;;;3.83;3.53;;;6.30;99.90;;;;;;5038415;28;20959;-73
2022/02/10 05:40:51;;;;;;;4.00;3.30;;;6.40;99.90;;;;;;5044630;28;20439;-74
2022/02/10 05:45:45;;;;;;;5.20;3.73;;;6.60;99.90;;;;;;5043894;28;20519;-73
2022/02/10 05:48:33;;;;;;;4.67;3.93;;;6.60;99.90;;;;;;5043862;28;20166;-73
2022/02/10 05:56:21;;;;;;;4.33;3.77;;;6.40;99.90;;;;;;5043705;28;20400;-74
2022/02/10 06:47:56;;;;;;;3.47;3.17;;;7.00;99.90;;;;;;5046423;28;20198;-72
2022/02/10 06:56:12;;;;;;;8.90;3.60;;;7.20;99.90;;;;;;5037289;28;20418;-71
2022/02/10 07:02:35;;;;;;;5.30;3.43;;;7.30;99.90;;;;;;5045814;28;20522;-72
2022/02/10 07:04:30;;;;;;;5.40;3.30;;;7.50;99.90;;;;;;5045885;28;20422;-71
2022/02/10 08:00:43;;;;;;;4.10;3.70;;;8.20;99.90;;;;;;5045275;28;20830;-75
2022/02/10 09:02:53;;;;;;;8.23;4.30;;;9.80;99.90;;;;;;5044457;28;20409;-74
2022/02/10 09:27:21;;;;;;;6.30;4.60;;;10.30;99.90;;;;;;5044113;28;20398;-73
2022/02/10 09:48:05;;;;;;;5.43;3.97;;;10.90;99.90;;;;;;5043510;28;20773;-68
2022/02/10 09:51:56;;;;;;;5.10;4.60;;;11.00;99.90;;;;;;5042956;28;20520;-70
2022/02/10 10:01:14;;;;;;;8.40;4.30;;;11.50;99.90;;;;;;5047565;28;20220;-68
2022/02/10 10:03:45;;;;;;;7.33;3.53;;;11.50;99.90;;;;;;5047272;28;20879;-68
2022/02/10 10:06:27;;;;;;;11.83;4.63;;;11.70;99.90;;;;;;5047567;28;20424;-73
2022/02/10 10:09:32;;;;;;;9.63;4.10;;;11.80;99.90;;;;;;5029528;28;20417;-70
2022/02/10 10:15:15;;;;;;;5.93;4.20;;;11.60;99.90;;;;;;4975239;28;20427;-69
2022/02/10 10:56:54;;;;;;;7.30;4.53;;;13.60;99.90;;;;;;5047298;28;20756;-70
2022/02/10 11:48:30;;;;;;;9.00;5.57;;;14.50;99.30;;;;;;5046497;28;20612;-72
2022/02/10 14:10:28;;;;;;;14.80;7.97;;;10.30;99.90;;;;;;5042849;28;20445;-72
2022/02/10 14:18:30;;;;;;;13.77;8.30;;;10.40;99.90;;;;;;5043145;28;20493;-73
2022/02/10 14:21:11;;;;;;;15.70;8.30;;;10.00;99.90;;;;;;5042217;28;20434;-70
2022/02/10 14:28:48;;;;;;;9.90;8.30;;;10.10;99.90;;;;;;5042862;28;20499;-71
2022/02/10 14:31:15;;;;;;;14.40;9.03;;;10.20;99.90;;;;;;5042819;28;20514;-72
2022/02/10 14:33:42;;;;;;;17.27;8.03;;;10.10;99.90;;;;;;5042197;28;20202;-74
2022/02/10 14:36:17;;;;;;;9.70;7.90;;;10.00;99.90;;;;;;5042752;28;20412;-72
2022/02/10 14:39:03;;;;;;;10.80;7.50;;;10.10;99.90;;;;;;5045799;28;20444;-71
2022/02/10 14:42:14;;;;;;;12.60;8.43;;;10.20;99.90;;;;;;5046123;28;20527;-72
2022/02/10 15:20:58;;;;;;;12.20;8.67;;;10.00;99.90;;;;;;5045923;28;20456;-72
2022/02/10 15:47:42;;;;;;;10.43;8.77;;;9.80;99.90;;;;;;5045501;28;20396;-72
2022/02/10 15:51:00;;;;;;;12.17;8.47;;;10.00;99.90;;;;;;5044655;28;20428;-73
2022/02/10 16:16:55;;;;;;;10.40;8.53;;;10.20;99.90;;;;;;5044742;28;20211;-73
2022/02/10 16:19:21;;;;;;;11.60;8.83;;;10.20;99.90;;;;;;5044687;28;21718;-73
2022/02/10 16:21:59;;;;;;;12.57;8.90;;;10.00;99.90;;;;;;5044837;28;20442;-72
2022/02/10 16:24:32;;;;;;;11.80;8.97;;;9.90;99.90;;;;;;5044803;28;20426;-73
2022/02/10 16:27:10;;;;;;;12.83;9.67;;;9.60;99.90;;;;;;5045037;28;20420;-73
2022/02/10 16:29:36;;;;;;;10.53;8.30;;;9.50;99.90;;;;;;5044778;28;20457;-73
2022/02/10 16:32:03;;;;;;;11.87;8.90;;;9.70;99.90;;;;;;5044476;28;20432;-73
2022/02/10 16:34:29;;;;;;;9.00;8.10;;;9.80;99.90;;;;;;5044157;28;20473;-74
2022/02/10 16:36:56;;;;;;;9.90;8.87;;;9.80;99.90;;;;;;5044436;28;20409;-73
2022/02/10 16:39:22;;;;;;;10.80;7.97;;;9.70;99.90;;;;;;5044116;28;20517;-74
2022/02/10 16:41:51;;;;;;;9.40;6.97;;;9.60;99.90;;;;;;5044508;28;20439;-75
2022/02/10 16:44:18;;;;;;;9.57;5.70;;;9.50;99.90;;;;;;5044605;28;20487;-73
2022/02/10 16:46:43;;;;;;;8.70;5.60;;;9.50;99.90;;;;;;5044980;28;20409;-73
2022/02/10 16:49:09;;;;;;;8.53;5.37;;;9.50;99.90;;;;;;5045251;28;20409;-73
2022/02/10 16:51:37;;;;;;;7.30;5.13;;;9.60;99.90;;;;;;5044936;28;20249;-74
2022/02/10 16:54:14;;;;;;;5.63;4.80;;;9.50;99.90;;;;;;5045308;28;20715;-75
2022/02/10 16:56:57;;;;;;;7.27;4.30;;;9.50;99.90;;;;;;5044992;28;20408;-73
2022/02/10 17:16:06;;;;;;;6.00;4.10;;;9.50;99.90;;;;;;5044569;28;20429;-72
2022/02/10 17:18:22;;;;;;;5.03;4.00;;;9.60;99.90;;;;;;5043755;28;20451;-74
2022/02/10 17:21:01;;;;;;;4.77;4.03;;;9.40;99.90;;;;;;5035388;28;20440;-73
2022/02/10 17:26:33;;;;;;;7.90;4.00;;;9.50;99.90;;;;;;5025194;28;20510;-74
2022/02/10 17:29:08;;;;;;;5.30;4.13;;;9.50;99.90;;;;;;5043761;28;20412;-75
2022/02/10 17:31:47;;;;;;;6.40;3.70;;;9.40;99.90;;;;;;5043374;28;20443;-73
2022/02/10 17:35:15;;;;;;;4.00;3.60;;;9.60;99.90;;;;;;5043920;28;20436;-73
2022/02/10 17:37:12;;;;;;;6.53;4.50;;;9.50;99.90;;;;;;5036072;28;20420;-72
2022/02/10 17:43:02;;;;;;;5.77;4.20;;;9.50;99.90;;;;;;5044160;28;20429;-73
2022/02/10 17:53:28;;;;;;;4.53;4.13;;;9.40;99.90;;;;;;5044228;28;21161;-73
2022/02/10 17:55:53;;;;;;;4.10;3.70;;;9.60;99.90;;;;;;5044555;28;20499;-73
2022/02/10 17:58:22;;;;;;;5.30;4.00;;;9.50;99.90;;;;;;5043424;28;20553;-74
2022/02/10 18:03:21;;;;;;;6.87;3.83;;;9.40;99.90;;;;;;5067050;22;20503;-71
2022/02/10 18:08:21;;;;;;;4.00;3.60;;;9.60;99.90;;;;;;5043822;28;20166;-73
2022/02/10 18:13:31;;;;;;;3.90;3.50;;;9.70;99.90;;;;;;5026338;28;20413;-73
2022/02/10 18:16:01;;;;;;;9.80;4.10;;;9.80;99.90;;;;;;5027336;28;20402;-73
2022/02/10 18:18:36;;;;;;;4.10;3.70;;;9.80;99.90;;;;;;5028174;28;20485;-72
2022/02/10 18:21:30;;;;;;;4.50;3.53;;;9.80;99.90;;;;;;5035866;28;20495;-73
2022/02/10 18:26:33;;;;;;;4.67;4.27;;;9.80;99.90;;;;;;5028787;28;20518;-72
2022/02/10 18:29:05;;;;;;;7.03;4.47;;;9.90;99.90;;;;;;5029034;28;20178;-71
2022/02/10 19:06:19;;;;;;;7.20;6.17;;;9.80;99.90;;;;;;5025996;28;20413;-69
2022/02/10 19:08:47;;;;;;;5.73;4.70;;;9.90;99.90;;;;;;5026890;28;20471;-72
2022/02/10 19:11:15;;;;;;;6.40;4.57;;;9.90;99.90;;;;;;5027726;28;20422;-73
2022/02/10 19:13:41;;;;;;;11.30;8.20;;;9.60;99.90;;;;;;5027693;28;20495;-71
2022/02/10 19:16:06;;;;;;;31.87;23.47;;;9.60;99.90;;;;;;5027321;28;20931;-71
2022/02/10 19:18:32;;;;;;;7.73;5.70;;;9.50;99.90;;;;;;5027396;28;20567;-72
2022/02/10 19:20:58;;;;;;;5.63;5.03;;;9.60;99.90;;;;;;5026637;28;20688;-75
2022/02/10 19:23:25;;;;;;;8.50;6.03;;;9.60;99.90;;;;;;5026712;28;20280;-72
2022/02/10 19:25:51;;;;;;;14.20;12.90;;;9.70;99.90;;;;;;5025182;28;20189;-72
2022/02/10 19:28:17;;;;;;;5.03;4.53;;;9.80;99.90;;;;;;5026741;28;20420;-70
2022/02/10 19:30:44;;;;;;;5.07;4.57;;;9.80;99.90;;;;;;5027116;28;20248;-71
2022/02/10 19:33:13;;;;;;;6.87;4.50;;;9.90;99.90;;;;;;5026749;28;20823;-73
2022/02/10 19:35:44;;;;;;;5.57;4.30;;;9.90;99.90;;;;;;5026400;28;20528;-71
2022/02/10 19:38:15;;;;;;;5.20;4.70;;;9.90;99.90;;;;;;5026225;28;20460;-71
2022/02/10 19:40:41;;;;;;;5.13;4.53;;;9.80;99.90;;;;;;5026803;28;20931;-72
2022/02/10 19:43:08;;;;;;;5.90;4.90;;;9.80;99.90;;;;;;5026541;28;20425;-72
2022/02/10 19:45:34;;;;;;;6.47;4.87;;;9.80;99.90;;;;;;5027282;28;20416;-72
2022/02/10 19:48:00;;;;;;;4.60;4.20;;;9.70;99.90;;;;;;5026492;28;20951;-72
2022/02/10 19:50:28;;;;;;;4.13;3.73;;;9.60;99.90;;;;;;5026448;28;20790;-71
2022/02/10 19:52:58;;;;;;;6.00;5.23;;;9.50;99.90;;;;;;5025797;28;20567;-71
2022/02/10 19:55:25;;;;;;;4.00;3.63;;;9.50;99.90;;;;;;5025594;28;20922;-71
2022/02/10 19:57:56;;;;;;;4.90;4.40;;;9.60;99.90;;;;;;5025350;28;20435;-73
2022/02/10 20:00:26;;;;;;;5.40;4.47;;;9.50;99.90;;;;;;5025584;28;20439;-69
2022/02/10 20:02:52;;;;;;;6.37;4.40;;;9.50;99.90;;;;;;5025265;28;20460;-70
2022/02/10 20:05:25;;;;;;;4.77;4.37;;;9.40;99.90;;;;;;5025486;28;20486;-73
2022/02/10 20:07:54;;;;;;;5.70;5.20;;;9.20;99.90;;;;;;5026152;28;20559;-73
2022/02/10 20:10:20;;;;;;;6.07;5.53;;;9.00;99.90;;;;;;5025369;28;20412;-70
2022/02/10 20:12:46;;;;;;;6.23;5.63;;;8.90;99.90;;;;;;5025407;28;20432;-72
2022/02/10 20:15:13;;;;;;;6.13;5.37;;;8.90;99.90;;;;;;5025115;28;20414;-70
2022/02/10 20:17:40;;;;;;;5.97;5.30;;;8.90;99.90;;;;;;5025619;28;20239;-71
2022/02/10 20:20:06;;;;;;;5.77;4.77;;;8.90;99.90;;;;;;5025189;28;20572;-72
2022/02/10 20:22:36;;;;;;;6.20;5.03;;;8.70;99.90;;;;;;5024961;28;20428;-69
2022/02/10 20:25:03;;;;;;;5.03;4.50;;;8.70;99.90;;;;;;5025927;28;21478;-72
2022/02/10 20:27:28;;;;;;;5.13;4.47;;;8.60;99.90;;;;;;5026972;28;20470;-71
2022/02/10 20:29:54;;;;;;;7.70;5.20;;;8.50;99.90;;;;;;5026718;28;20810;-70
2022/02/10 20:32:20;;;;;;;4.60;4.20;;;8.40;99.90;;;;;;5017808;28;20649;-74
2022/02/10 20:34:46;;;;;;;5.17;3.40;;;8.30;99.90;;;;;;5025988;28;20223;-73
2022/02/10 20:37:14;;;;;;;5.30;4.80;;;8.30;99.90;;;;;;5026519;28;20414;-70
2022/02/10 20:39:40;;;;;;;5.87;4.77;;;8.20;99.90;;;;;;5017384;28;20492;-73
2022/02/10 20:42:12;;;;;;;5.23;4.73;;;8.30;99.90;;;;;;5025843;28;20433;-73
2022/02/10 20:44:42;;;;;;;5.90;4.60;;;8.40;99.90;;;;;;5025427;28;20953;-71
2022/02/10 20:47:07;;;;;;;5.50;4.30;;;8.50;99.90;;;;;;5025133;28;20411;-70
2022/02/10 20:49:33;;;;;;;5.03;4.00;;;8.50;99.90;;;;;;5024557;28;21794;-70
2022/02/10 20:51:59;;;;;;;4.10;3.70;;;8.60;99.90;;;;;;5024925;28;20240;-72
2022/02/10 20:54:26;;;;;;;8.13;4.40;;;8.60;99.90;;;;;;5024589;28;20289;-73
2022/02/10 20:56:52;;;;;;;6.53;5.10;;;8.60;99.90;;;;;;5024571;28;20193;-72
2022/02/10 20:59:31;;;;;;;6.03;5.43;;;8.60;99.90;;;;;;5024022;28;20455;-72
2022/02/10 21:02:01;;;;;;;5.20;4.70;;;8.50;99.90;;;;;;5024460;28;20553;-71
2022/02/10 21:04:30;;;;;;;7.60;5.60;;;8.60;99.90;;;;;;5024642;28;20406;-73
2022/02/10 21:07:02;;;;;;;7.17;6.43;;;8.60;99.90;;;;;;5024279;28;20413;-71
2022/02/10 21:10:13;;;;;;;6.93;5.50;;;8.60;99.90;;;;;;5024504;28;20410;-71
2022/02/10 21:12:17;;;;;;;6.20;5.60;;;8.60;99.90;;;;;;5015749;28;20445;-72
2022/02/10 21:14:44;;;;;;;7.93;5.80;;;8.40;99.90;;;;;;5011566;28;20739;-74
2022/02/10 21:17:12;;;;;;;8.07;6.17;;;8.60;99.90;;;;;;5024517;28;20440;-71
2022/02/10 21:19:41;;;;;;;5.50;4.47;;;8.40;99.90;;;;;;5024008;28;20482;-73
2022/02/10 21:22:10;;;;;;;5.30;4.60;;;8.50;99.90;;;;;;5036725;28;20946;-72
2022/02/10 21:24:42;;;;;;;7.57;4.30;;;8.60;99.90;;;;;;5023638;28;20438;-73
2022/02/10 21:29:54;;;;;;;5.83;4.90;;;8.60;99.90;;;;;;5023848;28;20444;-71
2022/02/10 21:32:20;;;;;;;6.20;5.03;;;8.70;99.90;;;;;;5023525;28;20428;-71
2022/02/10 21:35:01;;;;;;;5.20;4.70;;;8.80;99.90;;;;;;5023374;28;20414;-73
2022/02/10 21:37:26;;;;;;;4.43;4.03;;;8.80;99.90;;;;;;5023521;28;20174;-71
2022/02/10 21:40:01;;;;;;;5.13;4.23;;;8.90;99.90;;;;;;5023595;28;20810;-71
2022/02/10 22:09:02;;;;;;;5.47;4.57;;;9.10;99.90;;;;;;5023691;28;20173;-70
2022/02/10 22:11:46;;;;;;;5.70;5.10;;;9.20;99.90;;;;;;5022983;28;20435;-72
2022/02/10 22:19:24;;;;;;;6.30;5.67;;;9.20;99.90;;;;;;5023565;28;20830;-71
2022/02/10 22:21:53;;;;;;;7.20;4.40;;;9.30;99.90;;;;;;5023857;28;20243;-72
2022/02/10 22:24:20;;;;;;;5.90;5.07;;;9.30;99.90;;;;;;5023040;28;20411;-71
2022/02/10 22:26:47;;;;;;;4.50;4.10;;;9.40;99.90;;;;;;5022984;28;20953;-70
2022/02/10 22:29:24;;;;;;;4.83;4.17;;;9.30;99.90;;;;;;5023176;28;20411;-73
2022/02/10 22:34:36;;;;;;;5.47;4.50;;;9.30;99.90;;;;;;5023106;28;20403;-72
2022/02/10 22:37:06;;;;;;;7.00;6.20;;;9.30;99.90;;;;;;5023151;28;20413;-72
2022/02/10 22:39:37;;;;;;;6.50;4.87;;;9.30;99.90;;;;;;5023324;28;21013;-71
2022/02/10 22:42:03;;;;;;;6.50;5.83;;;9.40;99.90;;;;;;5022895;28;20443;-71
2022/02/10 22:44:29;;;;;;;5.60;5.00;;;9.40;99.90;;;;;;5022912;28;20415;-71
2022/02/10 22:46:55;;;;;;;5.30;4.80;;;9.40;99.90;;;;;;5023207;28;20482;-71
2022/02/10 22:49:20;;;;;;;7.93;5.57;;;9.30;99.90;;;;;;5022549;28;20199;-70
2022/02/10 22:51:46;;;;;;;6.10;5.27;;;9.30;99.90;;;;;;5022356;28;20288;-70
2022/02/10 22:54:14;;;;;;;7.17;6.00;;;9.40;99.90;;;;;;5023028;28;20178;-71
2022/02/10 22:56:43;;;;;;;7.10;5.50;;;9.50;99.90;;;;;;5022830;28;20639;-71
2022/02/10 22:59:09;;;;;;;6.03;5.43;;;9.50;99.90;;;;;;5025213;28;20448;-69
2022/02/10 23:01:36;;;;;;;5.63;5.10;;;9.50;99.90;;;;;;5017656;28;21306;-73
2022/02/10 23:04:03;;;;;;;6.10;5.20;;;9.60;99.90;;;;;;5027264;28;20424;-73
2022/02/10 23:06:29;;;;;;;8.40;5.77;;;9.60;99.90;;;;;;5026221;28;20766;-71
2022/02/10 23:08:54;;;;;;;6.47;5.17;;;9.60;99.90;;;;;;5026742;28;20417;-74
2022/02/10 23:11:28;;;;;;;5.90;5.03;;;9.60;99.90;;;;;;5026594;28;20194;-71
2022/02/10 23:13:57;;;;;;;5.33;4.60;;;9.50;99.90;;;;;;5026529;28;20166;-71
2022/02/10 23:16:23;;;;;;;6.10;4.90;;;9.40;99.90;;;;;;5026538;28;20416;-72
2022/02/10 23:18:48;;;;;;;6.60;4.60;;;9.30;99.90;;;;;;5026101;28;20464;-73
2022/02/10 23:21:15;;;;;;;6.00;4.33;;;9.40;99.90;;;;;;5025790;28;20246;-71
2022/02/10 23:23:47;;;;;;;7.30;4.73;;;9.50;99.90;;;;;;5026072;28;20180;-70
2022/02/10 23:26:16;;;;;;;4.93;4.50;;;9.60;99.90;;;;;;5025915;28;20401;-71
2022/02/10 23:28:45;;;;;;;5.53;4.20;;;9.50;99.90;;;;;;5026261;28;20422;-72
2022/02/10 23:31:12;;;;;;;5.30;4.40;;;9.50;99.90;;;;;;5026039;28;20446;-71
2022/02/10 23:33:41;;;;;;;6.20;4.37;;;9.50;99.90;;;;;;5026093;28;20413;-74
2022/02/10 23:38:40;;;;;;;3.87;3.50;;;9.50;99.90;;;;;;5025785;28;20460;-71
2022/02/10 23:43:32;;;;;;;8.10;4.60;;;9.50;99.90;;;;;;5025944;28;20471;-74
2022/02/10 23:45:58;;;;;;;5.87;4.90;;;9.40;99.90;;;;;;5025854;28;20421;-74
2022/02/10 23:48:25;;;;;;;4.80;3.77;;;9.40;99.90;;;;;;5026053;28;20178;-72
2022/02/10 23:50:50;;;;;;;4.40;4.00;;;9.40;99.90;;;;;;5025447;28;20458;-70
2022/02/10 23:53:16;;;;;;;5.40;4.13;;;9.30;99.90;;;;;;5025670;28;20490;-71
2022/02/10 23:55:42;;;;;;;5.37;4.13;;;9.20;99.90;;;;;;5025406;28;20572;-70
